Terminal Aerodrome Forecast
Issued by NWS Cleveland, OH

Home | Current Version | Previous Version | Graphics & Text | Print | Product List | Glossary On
Versions: 1 2 3 4 5 6 7 8 9 10 11 12 13 14 15 16 17 18 19 20 21 22 23 24 25 26 27 28 29
000
FTUS41 KCLE 191137
TAFCLE
TAF
KCLE 191137Z 1912/2018 18012KT 6SM -SHRA BKN035 OVC050
      WS020/22045KT
      TEMPO 1912/1914 3SM -SHRA BKN020
     FM191400 18012KT 4SM -SHRA BKN009 OVC020 WS020/22045KT
     FM192100 20014G22KT 4SM -SHRA OVC009
     FM200300 20014G20KT P6SM VCSH BKN025 OVC050=

USA.gov is the U.S. government's official web portal to all federal, state and local government web resources and services.